createdAt,value
2018-12-31T00:01:30.162Z,89.60
2018-12-31T00:03:59.202Z,89.80
2018-12-31T00:06:28.194Z,89.70
2018-12-31T00:08:57.174Z,90.00
2018-12-31T00:11:26.239Z,90.10
2018-12-31T00:13:55.210Z,90.00
2018-12-31T00:16:24.316Z,90.30
2018-12-31T00:18:53.370Z,90.10
2018-12-31T00:21:22.434Z,90.00
2018-12-31T00:23:51.964Z,89.70
2018-12-31T00:26:20.962Z,89.30
2018-12-31T00:28:50.006Z,89.90
2018-12-31T00:31:19.135Z,89.80
2018-12-31T00:33:48.187Z,89.70
2018-12-31T00:36:17.227Z,89.10
2018-12-31T00:38:46.295Z,89.00
2018-12-31T00:41:15.379Z,89.00
2018-12-31T00:43:44.831Z,88.90
2018-12-31T00:46:14.502Z,89.00
2018-12-31T00:48:43.510Z,89.20
2018-12-31T00:51:12.563Z,88.80
2018-12-31T00:53:41.695Z,88.80
2018-12-31T00:56:10.772Z,88.10
2018-12-31T00:58:39.822Z,88.70
2018-12-31T01:01:08.918Z,88.70
2018-12-31T01:03:37.963Z,88.70
2018-12-31T01:06:07.009Z,88.70
2018-12-31T01:08:36.046Z,88.00
2018-12-31T01:11:05.222Z,90.20
2018-12-31T01:13:34.204Z,90.80
2018-12-31T01:16:03.274Z,91.00
2018-12-31T01:18:32.232Z,91.10
2018-12-31T01:21:01.206Z,91.20
2018-12-31T01:23:30.628Z,90.70
2018-12-31T01:25:59.719Z,90.00
2018-12-31T01:28:28.766Z,89.50
2018-12-31T01:30:58.183Z,88.80
2018-12-31T01:33:27.222Z,88.80
2018-12-31T01:35:56.218Z,88.70
2018-12-31T01:38:25.294Z,88.60
2018-12-31T01:40:54.331Z,88.40
2018-12-31T01:43:23.522Z,88.60
2018-12-31T01:45:53.499Z,88.40
2018-12-31T01:48:22.548Z,88.30
2018-12-31T01:50:51.518Z,88.30
2018-12-31T01:53:20.511Z,88.20
2018-12-31T01:55:50.780Z,88.10
2018-12-31T01:58:19.801Z,88.40
2018-12-31T02:00:48.870Z,88.30
2018-12-31T02:03:18.059Z,88.20
2018-12-31T02:05:47.108Z,87.80
2018-12-31T02:08:16.378Z,87.70
2018-12-31T02:10:45.350Z,88.00
2018-12-31T02:13:14.401Z,88.10
2018-12-31T02:15:44.443Z,88.60
2018-12-31T02:18:13.489Z,88.50
2018-12-31T02:20:42.536Z,88.20
2018-12-31T02:23:11.537Z,88.00
2018-12-31T02:25:40.532Z,88.10
2018-12-31T02:28:09.626Z,87.90
2018-12-31T02:30:38.949Z,88.00
2018-12-31T02:33:08.094Z,88.10
2018-12-31T02:35:37.076Z,88.20
2018-12-31T02:38:06.831Z,88.10
2018-12-31T02:40:35.795Z,87.70
2018-12-31T02:43:04.850Z,88.00
2018-12-31T02:45:34.225Z,88.40
2018-12-31T02:48:04.042Z,88.70
2018-12-31T02:50:33.023Z,88.50
2018-12-31T02:53:02.426Z,88.20
2018-12-31T02:55:31.391Z,88.50
2018-12-31T02:58:00.449Z,88.50
2018-12-31T03:00:29.706Z,88.30
2018-12-31T03:02:58.770Z,88.50
2018-12-31T03:05:27.898Z,88.40
2018-12-31T03:07:57.606Z,88.70
2018-12-31T03:10:26.573Z,88.50
2018-12-31T03:12:55.618Z,88.10
2018-12-31T03:15:24.722Z,87.90
2018-12-31T03:17:53.699Z,88.50
2018-12-31T03:20:22.727Z,87.90
2018-12-31T03:22:52.295Z,87.80
2018-12-31T03:25:21.502Z,87.50
2018-12-31T03:27:50.614Z,87.50
2018-12-31T03:30:20.182Z,87.60
2018-12-31T03:32:49.456Z,87.50
2018-12-31T03:35:18.503Z,87.60
2018-12-31T03:37:47.771Z,87.50
2018-12-31T03:40:16.851Z,87.50
2018-12-31T03:42:45.959Z,87.40
2018-12-31T03:45:15.121Z,87.40
2018-12-31T03:47:44.707Z,87.40
2018-12-31T03:50:13.659Z,87.40
2018-12-31T03:52:43.155Z,87.20
2018-12-31T03:55:12.211Z,87.00
2018-12-31T03:57:41.192Z,87.20
2018-12-31T04:00:10.279Z,87.40
2018-12-31T04:02:39.393Z,87.00
2018-12-31T04:05:08.474Z,87.00
2018-12-31T04:07:37.713Z,87.00
2018-12-31T04:10:06.798Z,87.10
2018-12-31T04:12:35.853Z,87.20
2018-12-31T04:15:05.102Z,87.10
2018-12-31T04:17:34.079Z,87.10
2018-12-31T04:20:03.126Z,87.10
2018-12-31T04:22:32.205Z,86.90
2018-12-31T04:25:01.183Z,87.10
2018-12-31T04:27:30.158Z,86.90
2018-12-31T04:29:59.366Z,87.30
2018-12-31T04:32:28.335Z,87.10
2018-12-31T04:34:57.385Z,87.10
2018-12-31T04:37:26.640Z,87.00
2018-12-31T04:39:55.605Z,87.20
2018-12-31T04:42:24.579Z,86.90
2018-12-31T04:44:53.645Z,86.70
2018-12-31T04:47:23.015Z,86.80
2018-12-31T04:49:52.460Z,86.70
2018-12-31T04:52:21.834Z,86.60
2018-12-31T04:54:50.895Z,86.70
2018-12-31T04:57:19.955Z,86.60
2018-12-31T04:59:49.010Z,86.60
2018-12-31T05:02:17.977Z,86.80
2018-12-31T05:04:47.031Z,86.80
2018-12-31T05:07:16.266Z,86.90
2018-12-31T05:09:45.310Z,86.90
2018-12-31T05:12:14.287Z,87.00
2018-12-31T05:14:43.390Z,86.90
2018-12-31T05:17:12.438Z,86.90
2018-12-31T05:19:41.406Z,86.90
2018-12-31T05:22:10.477Z,86.90
2018-12-31T05:24:39.434Z,86.80
2018-12-31T05:27:08.583Z,86.70
2018-12-31T05:29:38.285Z,86.60
2018-12-31T05:32:07.257Z,86.70
2018-12-31T05:34:36.297Z,86.80
2018-12-31T05:37:05.377Z,86.90
2018-12-31T05:39:34.349Z,87.00
2018-12-31T05:42:03.315Z,87.00
2018-12-31T05:44:32.807Z,87.00
2018-12-31T05:47:01.975Z,86.90
2018-12-31T05:49:31.341Z,87.00
2018-12-31T05:52:00.594Z,87.20
2018-12-31T05:54:29.570Z,86.90
2018-12-31T05:56:58.545Z,86.90
2018-12-31T05:59:27.969Z,86.60
2018-12-31T06:01:57.023Z,86.70
2018-12-31T06:04:25.982Z,86.60
2018-12-31T06:06:55.272Z,87.00
2018-12-31T06:11:49.340Z,87.00
2018-12-31T06:14:18.390Z,86.90
2018-12-31T06:16:47.439Z,86.90
2018-12-31T06:19:16.517Z,87.00
2018-12-31T06:21:45.559Z,86.90
2018-12-31T06:24:14.603Z,86.90
2018-12-31T06:26:43.871Z,86.70
2018-12-31T06:29:12.914Z,86.50
2018-12-31T06:31:41.902Z,86.80
2018-12-31T06:34:11.119Z,86.90
2018-12-31T06:36:40.085Z,86.90
2018-12-31T06:39:09.541Z,86.60
2018-12-31T06:41:38.874Z,86.50
2018-12-31T06:44:07.838Z,86.70
2018-12-31T06:46:36.889Z,86.70
2018-12-31T06:49:06.126Z,86.90
2018-12-31T06:51:35.174Z,86.60
2018-12-31T06:54:04.137Z,86.80
2018-12-31T06:56:33.477Z,86.70
2018-12-31T06:59:02.450Z,86.90
2018-12-31T07:01:31.561Z,87.00
2018-12-31T07:04:01.283Z,87.00
2018-12-31T07:06:30.258Z,86.70
2018-12-31T07:08:59.438Z,86.70
2018-12-31T07:11:28.759Z,86.80
2018-12-31T07:13:58.077Z,86.90
2018-12-31T07:16:27.115Z,86.80
2018-12-31T07:18:56.654Z,86.80
2018-12-31T07:21:25.630Z,87.20
2018-12-31T07:23:54.601Z,87.50
2018-12-31T07:26:23.942Z,86.90
2018-12-31T07:31:33.346Z,86.80
2018-12-31T07:34:02.386Z,87.00
2018-12-31T07:36:31.431Z,87.00
2018-12-31T07:39:00.499Z,87.10
2018-12-31T07:41:29.566Z,86.70
2018-12-31T07:43:58.597Z,86.90
2018-12-31T07:46:27.859Z,87.20
2018-12-31T07:48:56.913Z,87.10
2018-12-31T07:51:25.962Z,87.10
2018-12-31T07:53:55.291Z,87.00
2018-12-31T07:56:24.451Z,86.90
2018-12-31T07:58:53.499Z,87.10
2018-12-31T08:01:22.824Z,87.00
2018-12-31T08:03:51.871Z,87.00
2018-12-31T08:06:20.835Z,87.20
2018-12-31T08:08:50.109Z,86.90
2018-12-31T08:11:19.162Z,86.90
2018-12-31T08:13:48.222Z,86.90
2018-12-31T08:16:17.701Z,86.90
2018-12-31T08:18:46.739Z,87.10
2018-12-31T08:21:15.707Z,86.90
2018-12-31T08:23:45.101Z,87.00
2018-12-31T08:26:14.183Z,86.90
2018-12-31T08:28:43.222Z,87.00
2018-12-31T08:31:31.968Z,87.20
2018-12-31T08:34:01.560Z,86.90
2018-12-31T08:36:30.527Z,86.90
2018-12-31T08:38:59.766Z,86.90
2018-12-31T08:41:28.814Z,86.90
2018-12-31T08:43:58.828Z,87.00
2018-12-31T08:46:28.494Z,86.90
2018-12-31T08:48:57.679Z,86.90
2018-12-31T08:51:26.722Z,86.70
2018-12-31T08:53:55.930Z,86.80
2018-12-31T08:56:24.971Z,86.90
2018-12-31T08:58:54.020Z,86.90
2018-12-31T09:01:23.791Z,87.10
2018-12-31T09:03:52.842Z,86.90
2018-12-31T09:06:21.890Z,86.80
2018-12-31T09:08:51.167Z,86.10
2018-12-31T09:11:20.278Z,87.50
2018-12-31T09:13:49.328Z,86.80
2018-12-31T09:16:18.714Z,86.90
2018-12-31T09:18:47.786Z,86.70
2018-12-31T09:21:16.874Z,87.00
2018-12-31T09:23:46.497Z,86.90
2018-12-31T09:26:15.463Z,86.90
2018-12-31T09:28:44.429Z,86.90
2018-12-31T09:31:13.849Z,86.90
2018-12-31T09:33:43.075Z,86.90
2018-12-31T09:36:12.581Z,86.90
2018-12-31T09:38:42.862Z,86.90
2018-12-31T09:41:12.014Z,87.00
2018-12-31T09:43:40.999Z,86.90
2018-12-31T09:46:10.601Z,87.00
2018-12-31T09:48:39.657Z,87.10
2018-12-31T09:51:08.790Z,86.90
2018-12-31T09:53:38.300Z,87.60
2018-12-31T09:56:11.501Z,90.50
2018-12-31T09:58:40.586Z,90.50
2018-12-31T10:01:10.079Z,90.70
2018-12-31T10:03:39.046Z,90.70
2018-12-31T10:06:07.945Z,90.40
2018-12-31T10:08:36.931Z,90.10
2018-12-31T10:11:05.826Z,89.70
2018-12-31T10:13:34.802Z,89.20
2018-12-31T10:16:03.879Z,88.40
2018-12-31T10:18:32.883Z,86.70
2018-12-31T10:21:03.325Z,86.20
2018-12-31T10:23:32.547Z,86.60
2018-12-31T10:26:01.579Z,86.40
2018-12-31T10:28:30.632Z,85.90
2018-12-31T10:31:00.071Z,86.00
2018-12-31T10:33:29.326Z,86.00
2018-12-31T10:35:58.748Z,85.60
2018-12-31T10:38:27.824Z,84.90
2018-12-31T10:40:56.890Z,85.70
2018-12-31T10:43:25.870Z,85.90
2018-12-31T10:45:55.118Z,85.50
2018-12-31T10:48:24.178Z,85.30
2018-12-31T10:50:53.226Z,85.50
2018-12-31T10:53:22.445Z,85.80
2018-12-31T10:55:51.535Z,85.00
2018-12-31T10:58:20.576Z,83.90
2018-12-31T11:00:49.662Z,83.30
2018-12-31T11:03:18.630Z,83.90
2018-12-31T11:05:47.686Z,84.90
2018-12-31T11:08:16.972Z,85.70
2018-12-31T11:10:46.014Z,85.70
2018-12-31T11:13:15.063Z,85.70
2018-12-31T11:15:44.558Z,85.80
2018-12-31T11:18:13.595Z,85.60
2018-12-31T11:20:42.722Z,85.50
2018-12-31T11:23:11.866Z,86.00
2018-12-31T11:25:40.839Z,86.30
2018-12-31T11:28:09.879Z,86.40
2018-12-31T11:30:39.553Z,86.50
2018-12-31T11:33:09.178Z,87.20
2018-12-31T11:35:38.305Z,87.50
2018-12-31T11:38:07.379Z,87.40
2018-12-31T11:40:36.546Z,87.60
2018-12-31T11:43:05.621Z,90.10
2018-12-31T11:45:35.022Z,90.50
2018-12-31T11:48:04.069Z,90.40
2018-12-31T11:50:33.134Z,90.30
2018-12-31T11:53:02.610Z,90.20
2018-12-31T11:55:31.671Z,90.00
2018-12-31T11:58:00.718Z,89.80
2018-12-31T12:00:29.804Z,89.50
2018-12-31T12:02:58.836Z,89.10
2018-12-31T12:05:27.885Z,88.70
2018-12-31T12:07:57.279Z,88.50
2018-12-31T12:10:26.344Z,88.30
2018-12-31T12:12:55.383Z,88.10
2018-12-31T12:15:24.469Z,88.00
2018-12-31T12:17:53.446Z,87.70
2018-12-31T12:20:22.425Z,87.60
2018-12-31T12:22:51.422Z,87.40
2018-12-31T12:25:20.475Z,87.30
2018-12-31T12:27:49.434Z,87.00
2018-12-31T12:30:18.456Z,86.90
2018-12-31T12:32:47.422Z,86.90
2018-12-31T12:35:16.605Z,86.90
2018-12-31T12:37:48.640Z,86.90
2018-12-31T12:40:17.526Z,86.80
2018-12-31T12:42:46.647Z,86.60
2018-12-31T12:45:16.154Z,86.60
2018-12-31T12:47:45.215Z,86.30
2018-12-31T12:50:14.319Z,86.10
2018-12-31T12:52:44.054Z,86.20
2018-12-31T12:55:13.595Z,86.10
2018-12-31T12:57:42.634Z,86.00
2018-12-31T13:00:11.685Z,86.10
2018-12-31T13:02:40.810Z,86.20
2018-12-31T13:05:09.941Z,86.30
2018-12-31T13:07:39.638Z,86.30
2018-12-31T13:10:08.721Z,86.40
2018-12-31T13:12:37.765Z,86.50
2018-12-31T13:15:06.838Z,86.70
2018-12-31T13:17:35.932Z,87.00
2018-12-31T13:20:05.174Z,86.70
2018-12-31T13:22:34.561Z,86.80
2018-12-31T13:25:03.663Z,86.90
2018-12-31T13:27:32.649Z,87.40
2018-12-31T13:30:02.111Z,87.00
2018-12-31T13:32:31.173Z,87.00
2018-12-31T13:35:00.703Z,86.90
2018-12-31T13:37:30.097Z,87.10
2018-12-31T13:39:59.135Z,87.10
2018-12-31T13:42:28.160Z,87.00
2018-12-31T13:44:57.795Z,87.30
2018-12-31T13:47:26.761Z,87.20
2018-12-31T13:49:55.729Z,87.00
2018-12-31T13:52:25.086Z,87.00
2018-12-31T13:54:54.146Z,87.20
2018-12-31T13:57:23.262Z,87.10
2018-12-31T13:59:53.046Z,87.40
2018-12-31T14:02:22.020Z,87.20
2018-12-31T14:04:51.054Z,87.00
2018-12-31T14:07:20.878Z,87.00
2018-12-31T14:09:49.935Z,87.10
2018-12-31T14:12:18.911Z,87.20
2018-12-31T14:14:47.959Z,87.40
2018-12-31T14:17:16.935Z,87.30
2018-12-31T14:19:46.353Z,87.10
2018-12-31T14:22:15.365Z,87.10
2018-12-31T14:24:44.427Z,87.20
2018-12-31T14:27:13.468Z,87.30
2018-12-31T14:29:42.834Z,87.30
2018-12-31T14:32:12.381Z,87.50
2018-12-31T14:34:41.447Z,87.60
2018-12-31T14:37:11.128Z,87.60
2018-12-31T14:39:40.902Z,87.50
2018-12-31T14:42:10.026Z,87.60
2018-12-31T14:44:39.954Z,87.50
2018-12-31T14:47:09.281Z,87.60
2018-12-31T14:49:38.241Z,87.60
2018-12-31T14:52:07.550Z,87.70
2018-12-31T14:54:36.605Z,87.70
2018-12-31T14:57:06.170Z,87.70
2018-12-31T14:59:35.858Z,87.70
2018-12-31T15:02:04.911Z,87.70
2018-12-31T15:04:34.023Z,87.80
2018-12-31T15:07:03.449Z,87.80
2018-12-31T15:09:32.428Z,87.70
2018-12-31T15:12:01.471Z,87.60
2018-12-31T15:14:30.531Z,87.70
2018-12-31T15:16:59.594Z,87.80
2018-12-31T15:19:28.638Z,87.60
2018-12-31T15:21:58.526Z,87.60
2018-12-31T15:24:27.570Z,87.80
2018-12-31T15:26:56.611Z,87.70
2018-12-31T15:29:26.531Z,87.90
2018-12-31T15:31:55.515Z,88.00
2018-12-31T15:34:24.491Z,88.00
2018-12-31T15:36:53.642Z,87.90
2018-12-31T15:39:23.205Z,88.00
2018-12-31T15:41:52.274Z,87.90
2018-12-31T15:44:22.019Z,88.00
2018-12-31T15:46:51.078Z,87.90
2018-12-31T15:49:20.291Z,87.90
2018-12-31T15:51:49.926Z,87.80
2018-12-31T15:54:18.983Z,87.60
2018-12-31T15:56:48.101Z,87.70
2018-12-31T15:59:17.340Z,87.80
2018-12-31T16:01:46.307Z,87.80
2018-12-31T16:04:15.341Z,87.90
2018-12-31T16:06:44.721Z,87.90
2018-12-31T16:09:13.761Z,87.70
2018-12-31T16:11:42.808Z,87.60
2018-12-31T16:14:11.887Z,87.70
2018-12-31T16:16:40.930Z,87.90
2018-12-31T16:19:10.002Z,88.00
2018-12-31T16:21:39.349Z,88.00
2018-12-31T16:24:08.406Z,87.80
2018-12-31T16:26:37.380Z,87.90
2018-12-31T16:29:07.262Z,87.90
2018-12-31T16:31:36.302Z,87.90
2018-12-31T16:34:05.411Z,87.70
2018-12-31T16:36:34.421Z,87.60
2018-12-31T16:39:04.094Z,87.80
2018-12-31T16:41:33.454Z,88.50
2018-12-31T16:44:02.790Z,87.70
2018-12-31T16:46:31.932Z,87.60
2018-12-31T16:49:01.110Z,87.80
2018-12-31T16:51:30.238Z,87.50
2018-12-31T16:54:00.089Z,87.70
2018-12-31T16:56:29.205Z,87.60
2018-12-31T16:58:58.556Z,87.40
2018-12-31T17:01:27.601Z,87.70
2018-12-31T17:03:56.659Z,87.60
2018-12-31T17:06:26.123Z,87.60
2018-12-31T17:08:55.171Z,87.80
2018-12-31T17:11:24.203Z,88.30
2018-12-31T17:13:53.296Z,87.60
2018-12-31T17:16:22.335Z,87.60
2018-12-31T17:18:51.394Z,87.60
2018-12-31T17:21:20.586Z,87.90
2018-12-31T17:23:49.549Z,87.70
2018-12-31T17:26:18.594Z,87.60
2018-12-31T17:28:48.283Z,87.50
2018-12-31T17:31:17.337Z,87.50
2018-12-31T17:33:46.483Z,87.60
2018-12-31T17:36:15.674Z,87.70
2018-12-31T17:38:45.055Z,88.20
2018-12-31T17:41:14.907Z,87.60
2018-12-31T17:43:44.410Z,87.60
2018-12-31T17:46:13.379Z,87.40
2018-12-31T17:48:42.463Z,87.40
2018-12-31T17:51:12.078Z,87.40
2018-12-31T17:53:41.126Z,87.60
2018-12-31T17:56:10.102Z,87.90
2018-12-31T17:58:39.472Z,87.70
2018-12-31T18:01:08.589Z,87.60
2018-12-31T18:03:37.635Z,87.20
2018-12-31T18:06:07.034Z,87.10
2018-12-31T18:08:36.011Z,87.00
2018-12-31T18:11:05.065Z,87.30
2018-12-31T18:13:36.459Z,87.70
2018-12-31T18:16:05.661Z,88.00
2018-12-31T18:18:34.706Z,88.30
2018-12-31T18:21:03.720Z,88.50
2018-12-31T18:23:32.760Z,89.40
2018-12-31T18:26:01.882Z,89.00
2018-12-31T18:28:30.957Z,89.00
2018-12-31T18:31:00.002Z,89.10
2018-12-31T18:33:28.966Z,89.10
2018-12-31T18:35:58.546Z,89.10
2018-12-31T18:38:27.941Z,89.30
2018-12-31T18:40:57.223Z,89.60
2018-12-31T18:43:26.774Z,89.80
2018-12-31T18:45:55.807Z,90.00
2018-12-31T18:48:25.034Z,90.20
2018-12-31T18:50:54.348Z,90.10
2018-12-31T18:53:23.858Z,90.30
2018-12-31T18:55:52.918Z,90.30
2018-12-31T18:58:22.234Z,90.40
2018-12-31T19:00:51.206Z,90.50
2018-12-31T19:03:20.252Z,90.50
2018-12-31T19:05:49.797Z,90.60
2018-12-31T19:08:18.837Z,90.70
2018-12-31T19:10:47.891Z,90.80
2018-12-31T19:13:17.686Z,90.90
2018-12-31T19:15:46.654Z,90.90
2018-12-31T19:18:15.694Z,91.20
2018-12-31T19:20:44.830Z,91.10
2018-12-31T19:23:14.010Z,91.10
2018-12-31T19:25:42.915Z,91.10
2018-12-31T19:28:12.083Z,91.10
2018-12-31T19:30:41.689Z,91.10
2018-12-31T19:33:10.670Z,91.10
2018-12-31T19:35:39.890Z,91.30
2018-12-31T19:38:09.038Z,91.30
2018-12-31T19:40:38.381Z,91.20
2018-12-31T19:43:07.966Z,91.30
2018-12-31T19:45:36.941Z,91.50
2018-12-31T19:48:05.982Z,91.50
2018-12-31T19:50:35.378Z,91.40
2018-12-31T19:53:04.434Z,91.50
2018-12-31T19:55:33.979Z,91.60
2018-12-31T19:58:02.996Z,91.50
2018-12-31T20:00:32.047Z,91.50
2018-12-31T20:03:01.166Z,91.90
2018-12-31T20:05:30.497Z,91.60
2018-12-31T20:08:00.120Z,91.60
2018-12-31T20:10:29.238Z,91.50
2018-12-31T20:12:58.339Z,91.60
2018-12-31T20:15:27.297Z,91.50
2018-12-31T20:17:56.361Z,91.40
2018-12-31T20:20:25.938Z,91.30
2018-12-31T20:22:54.986Z,91.30
2018-12-31T20:25:24.103Z,91.30
2018-12-31T20:27:53.404Z,91.30
2018-12-31T20:30:22.522Z,91.20
2018-12-31T20:32:51.596Z,91.40
2018-12-31T20:35:20.945Z,91.50
2018-12-31T20:37:49.996Z,91.60
2018-12-31T20:40:19.305Z,91.70
2018-12-31T20:42:49.435Z,91.50
2018-12-31T20:45:18.415Z,91.60
2018-12-31T20:47:48.167Z,91.20
2018-12-31T20:50:17.546Z,91.20
2018-12-31T20:52:46.882Z,91.20
2018-12-31T20:55:15.844Z,91.40
2018-12-31T20:57:45.226Z,91.40
2018-12-31T21:00:14.291Z,91.50
2018-12-31T21:02:43.354Z,91.60
2018-12-31T21:05:13.130Z,91.60
2018-12-31T21:07:42.223Z,91.40
2018-12-31T21:10:11.860Z,91.30
2018-12-31T21:12:41.062Z,91.50
2018-12-31T21:15:10.214Z,91.60
2018-12-31T21:17:39.202Z,91.70
2018-12-31T21:20:08.830Z,91.80
2018-12-31T21:22:37.890Z,91.80
2018-12-31T21:25:06.880Z,91.90
2018-12-31T21:27:36.756Z,91.90
2018-12-31T21:30:08.442Z,92.00
2018-12-31T21:32:37.514Z,92.00
2018-12-31T21:35:07.515Z,92.20
2018-12-31T21:37:36.638Z,92.10
2018-12-31T21:40:07.825Z,91.90
2018-12-31T21:42:37.633Z,91.60
2018-12-31T21:45:06.605Z,91.50
2018-12-31T21:47:35.591Z,91.60
2018-12-31T21:50:04.962Z,91.60
2018-12-31T21:52:34.006Z,91.60
2018-12-31T21:55:03.074Z,91.70
2018-12-31T21:57:32.166Z,91.70
2018-12-31T22:00:01.213Z,91.80
2018-12-31T22:02:30.262Z,91.70
2018-12-31T22:04:59.687Z,91.70
2018-12-31T22:07:28.738Z,91.70
2018-12-31T22:09:57.804Z,91.50
2018-12-31T22:12:26.891Z,91.30
2018-12-31T22:14:56.033Z,91.30
2018-12-31T22:17:25.550Z,91.30
2018-12-31T22:19:54.598Z,91.40
2018-12-31T22:22:23.641Z,91.40
2018-12-31T22:24:52.703Z,91.40
2018-12-31T22:27:22.359Z,91.40
2018-12-31T22:29:52.015Z,91.50
2018-12-31T22:32:21.026Z,91.60
2018-12-31T22:34:50.260Z,91.70
2018-12-31T22:37:19.316Z,91.60
2018-12-31T22:39:48.778Z,91.60
2018-12-31T22:42:19.681Z,91.50
2018-12-31T22:44:48.675Z,91.70
2018-12-31T22:47:17.721Z,91.60
2018-12-31T22:49:46.975Z,91.40
2018-12-31T22:52:16.030Z,91.30
2018-12-31T22:54:45.554Z,91.40
2018-12-31T22:57:14.865Z,91.30
2018-12-31T22:59:43.849Z,91.40
2018-12-31T23:02:12.972Z,91.50
2018-12-31T23:04:42.457Z,91.60
2018-12-31T23:07:12.160Z,91.60
2018-12-31T23:09:41.632Z,91.70
2018-12-31T23:12:11.618Z,91.80
2018-12-31T23:14:40.663Z,91.80
2018-12-31T23:17:12.438Z,91.60
2018-12-31T23:19:42.162Z,91.40
2018-12-31T23:22:11.202Z,91.60
2018-12-31T23:24:40.249Z,91.40
2018-12-31T23:27:10.405Z,91.40
2018-12-31T23:29:39.478Z,91.40
2018-12-31T23:32:08.546Z,91.50
2018-12-31T23:34:37.851Z,91.50
2018-12-31T23:37:06.814Z,91.60
2018-12-31T23:39:35.892Z,92.00
2018-12-31T23:42:05.405Z,91.70
2018-12-31T23:44:34.898Z,91.60
2018-12-31T23:47:03.958Z,91.30
2018-12-31T23:49:33.322Z,91.20
2018-12-31T23:52:02.376Z,91.20
2018-12-31T23:54:31.402Z,91.20
2018-12-31T23:57:00.714Z,91.20
2018-12-31T23:59:29.696Z,91.30
